Time;durP1;ratioP1;P1;durP2;ratioP2;P2;SDS_P1;SDS_P2;PMS_P1;PMS_P2;Temp;Humidity;BMP_temperature;BMP_pressure;BME280_temperature;BME280_humidity;BME280_pressure;Samples;Min_cycle;Max_cycle;Signal;HPM_P1;HPM_P2
2022/04/12 00:00:25;;;;;;;7.43;3.60;;;4.30;97.30;;;;;;4993453;28;20240;-76
2022/04/12 00:02:50;;;;;;;6.33;3.40;;;4.30;97.30;;;;;;4993585;28;20663;-76
2022/04/12 00:05:16;;;;;;;5.77;3.43;;;4.30;97.30;;;;;;4994256;28;20205;-75
2022/04/12 00:07:45;;;;;;;5.00;3.77;;;4.30;97.30;;;;;;4995968;28;20201;-75
2022/04/12 00:10:12;;;;;;;5.63;3.07;;;4.30;97.30;;;;;;4995735;28;20207;-75
2022/04/12 00:12:39;;;;;;;6.83;3.67;;;4.30;97.30;;;;;;4995595;28;20937;-75
2022/04/12 00:15:06;;;;;;;8.77;4.03;;;4.30;97.30;;;;;;5013088;28;20498;-76
2022/04/12 00:20:16;;;;;;;7.03;3.40;;;4.20;97.30;;;;;;5013641;28;20453;-76
2022/04/12 00:22:42;;;;;;;5.50;3.40;;;4.10;97.30;;;;;;4994829;28;20934;-77
2022/04/12 00:25:09;;;;;;;11.20;3.00;;;4.10;97.30;;;;;;5028038;28;20722;-78
2022/04/12 00:27:41;;;;;;;7.57;3.50;;;4.10;97.30;;;;;;4995444;28;20215;-77
2022/04/12 00:30:08;;;;;;;6.90;3.67;;;4.00;97.30;;;;;;5013149;28;21115;-77
2022/04/12 00:32:34;;;;;;;4.10;2.93;;;4.00;97.30;;;;;;5016046;28;20420;-77
2022/04/12 00:35:01;;;;;;;5.90;3.47;;;4.00;97.30;;;;;;5003306;28;20979;-77
2022/04/12 00:37:27;;;;;;;9.03;3.63;;;3.90;97.30;;;;;;5014875;28;20419;-75
2022/04/12 00:39:52;;;;;;;7.17;4.10;;;3.90;97.30;;;;;;5013040;28;20415;-75
2022/04/12 00:42:18;;;;;;;11.47;3.90;;;3.80;97.30;;;;;;5013031;28;20586;-75
2022/04/12 00:44:44;;;;;;;4.50;3.30;;;3.80;97.30;;;;;;5031500;28;20485;-75
2022/04/12 00:47:09;;;;;;;4.43;2.87;;;3.70;97.30;;;;;;4996346;28;20227;-74
2022/04/12 00:49:35;;;;;;;4.73;3.10;;;3.70;97.30;;;;;;5011638;28;20517;-76
2022/04/12 00:52:02;;;;;;;8.53;4.20;;;3.60;97.30;;;;;;5030834;28;20195;-79
2022/04/12 00:54:28;;;;;;;4.47;3.07;;;3.60;97.30;;;;;;5015602;28;20254;-79
2022/04/12 00:56:54;;;;;;;4.53;3.33;;;3.60;97.30;;;;;;5033492;28;20423;-79
2022/04/12 00:59:20;;;;;;;8.43;3.70;;;3.50;97.30;;;;;;5015782;28;20423;-79
2022/04/12 01:01:46;;;;;;;5.30;2.93;;;3.50;97.30;;;;;;5033330;28;20752;-79
2022/04/12 01:04:11;;;;;;;10.57;3.80;;;3.50;97.30;;;;;;5015502;28;20669;-79
2022/04/12 01:06:38;;;;;;;9.80;3.30;;;3.50;97.30;;;;;;5015518;28;20646;-79
2022/04/12 01:09:05;;;;;;;6.00;3.67;;;3.50;97.30;;;;;;5032798;28;20204;-79
2022/04/12 01:11:33;;;;;;;6.70;3.27;;;3.50;97.30;;;;;;5032843;28;20480;-79
2022/04/12 01:14:00;;;;;;;7.40;4.43;;;3.50;97.30;;;;;;5032673;28;20434;-78
2022/04/12 01:16:26;;;;;;;4.53;3.30;;;3.50;97.30;;;;;;5014870;28;20506;-80
2022/04/12 01:18:52;;;;;;;5.80;3.07;;;3.50;97.30;;;;;;5016160;28;20511;-79
2022/04/12 01:21:22;;;;;;;6.17;3.57;;;3.40;97.30;;;;;;4975958;28;20225;-79
2022/04/12 01:24:03;;;;;;;5.70;3.60;;;3.40;97.30;;;;;;4975573;28;20245;-80
2022/04/12 01:26:29;;;;;;;4.60;3.10;;;3.40;97.30;;;;;;4975618;28;20507;-78
2022/04/12 01:28:55;;;;;;;5.40;3.20;;;3.30;97.30;;;;;;4975322;28;20524;-79
2022/04/12 01:31:23;;;;;;;6.00;3.50;;;3.20;97.30;;;;;;4975461;28;20941;-79
2022/04/12 01:33:48;;;;;;;6.90;3.00;;;3.20;97.30;;;;;;4975317;28;20448;-78
2022/04/12 01:36:14;;;;;;;3.43;2.93;;;3.20;97.30;;;;;;4994649;28;20547;-78
2022/04/12 01:38:39;;;;;;;4.43;2.90;;;3.10;97.30;;;;;;5012235;28;20189;-79
2022/04/12 01:41:05;;;;;;;6.10;3.27;;;3.10;97.30;;;;;;4976801;28;20232;-79
2022/04/12 01:43:30;;;;;;;7.90;3.57;;;3.00;97.30;;;;;;4975493;28;20188;-79
2022/04/12 01:45:56;;;;;;;6.30;3.30;;;3.00;97.30;;;;;;4975509;28;20185;-78
2022/04/12 01:48:22;;;;;;;5.60;3.80;;;3.00;97.30;;;;;;4975398;28;20221;-78
2022/04/12 01:50:48;;;;;;;4.83;3.50;;;3.00;97.30;;;;;;4975254;28;20209;-77
2022/04/12 01:53:13;;;;;;;4.70;3.27;;;2.90;97.30;;;;;;4992465;28;20177;-78
2022/04/12 01:55:39;;;;;;;5.17;3.20;;;2.90;97.30;;;;;;4975403;28;20421;-78
2022/04/12 01:58:05;;;;;;;3.73;3.17;;;2.90;97.30;;;;;;4975114;28;20177;-78
2022/04/12 02:00:31;;;;;;;5.90;3.30;;;2.90;97.30;;;;;;4993542;28;20189;-78
2022/04/12 02:03:12;;;;;;;7.90;3.13;;;2.80;97.30;;;;;;4978652;28;20178;-78
2022/04/12 02:05:39;;;;;;;5.70;3.13;;;2.80;97.30;;;;;;4978345;28;20564;-78
2022/04/12 02:08:10;;;;;;;5.73;3.00;;;2.80;97.30;;;;;;4995783;28;21013;-78
2022/04/12 02:10:40;;;;;;;5.33;3.27;;;2.70;97.30;;;;;;5009607;28;20424;-78
2022/04/12 02:13:16;;;;;;;6.13;3.60;;;2.70;97.30;;;;;;4997924;28;20507;-79
2022/04/12 02:15:42;;;;;;;4.80;3.50;;;2.60;97.30;;;;;;4998006;28;20416;-78
2022/04/12 02:18:09;;;;;;;4.80;3.07;;;2.60;97.30;;;;;;4998514;28;20475;-80
2022/04/12 02:20:35;;;;;;;3.80;2.70;;;2.60;97.30;;;;;;5015643;28;20423;-80
2022/04/12 02:23:01;;;;;;;7.10;3.70;;;2.60;97.30;;;;;;4997410;28;20423;-80
2022/04/12 02:25:29;;;;;;;5.60;3.37;;;2.50;97.30;;;;;;4997258;28;20224;-80
2022/04/12 02:27:54;;;;;;;4.97;3.57;;;2.50;97.30;;;;;;5015180;28;20451;-80
2022/04/12 02:30:20;;;;;;;4.80;2.97;;;2.50;97.30;;;;;;4997917;28;20527;-80
2022/04/12 02:32:47;;;;;;;3.80;2.60;;;2.50;97.30;;;;;;4997973;28;20178;-80
2022/04/12 02:35:12;;;;;;;5.33;3.20;;;2.40;97.30;;;;;;4997425;28;20267;-80
2022/04/12 02:37:39;;;;;;;4.23;3.00;;;2.40;97.30;;;;;;4997545;28;21029;-80
2022/04/12 02:40:06;;;;;;;6.90;3.50;;;2.40;97.30;;;;;;4998088;28;20181;-81
2022/04/12 02:42:32;;;;;;;5.80;3.17;;;2.40;97.30;;;;;;4996948;28;20431;-81
2022/04/12 02:45:01;;;;;;;5.90;3.30;;;2.40;97.30;;;;;;5029549;28;20823;-79
2022/04/12 02:47:29;;;;;;;3.73;3.53;;;2.40;97.30;;;;;;5034556;28;20317;-78
2022/04/12 02:49:56;;;;;;;6.20;4.10;;;2.30;97.30;;;;;;5034944;28;20812;-78
2022/04/12 02:52:21;;;;;;;7.50;3.47;;;2.30;97.30;;;;;;5016828;28;20514;-78
2022/04/12 02:54:50;;;;;;;8.20;3.70;;;2.30;97.30;;;;;;5016614;28;20630;-78
2022/04/12 02:57:15;;;;;;;6.87;3.97;;;2.20;97.30;;;;;;5016930;28;20181;-78
2022/04/12 03:02:21;;;;;;;4.13;3.17;;;2.20;97.30;;;;;;4991888;28;20214;-84
2022/04/12 03:04:46;;;;;;;4.40;2.87;;;2.20;97.30;;;;;;5006901;28;20441;-84
2022/04/12 03:07:12;;;;;;;5.77;4.17;;;2.20;97.30;;;;;;4974271;28;20270;-84
2022/04/12 03:09:38;;;;;;;6.27;3.60;;;2.20;97.30;;;;;;4974296;28;20206;-84
2022/04/12 03:12:04;;;;;;;7.10;3.40;;;2.20;97.30;;;;;;4973684;28;20190;-84
2022/04/12 03:14:30;;;;;;;4.03;3.20;;;2.10;97.30;;;;;;5006644;28;20230;-84
2022/04/12 03:16:55;;;;;;;7.90;3.97;;;2.10;97.30;;;;;;4974302;28;20425;-84
2022/04/12 03:19:21;;;;;;;5.30;3.90;;;2.10;97.30;;;;;;4980054;28;20169;-84
2022/04/12 03:21:46;;;;;;;9.90;4.37;;;2.10;97.30;;;;;;4994492;28;20236;-84
2022/04/12 03:24:12;;;;;;;8.83;4.53;;;2.00;97.30;;;;;;4993737;28;20225;-84
2022/04/12 03:26:38;;;;;;;7.20;3.37;;;2.00;97.30;;;;;;4993894;28;20229;-84
2022/04/12 03:29:03;;;;;;;3.77;3.10;;;2.00;97.30;;;;;;4994865;28;20212;-85
2022/04/12 03:31:29;;;;;;;7.37;3.50;;;2.00;97.30;;;;;;4993370;28;20218;-84
2022/04/12 03:33:54;;;;;;;7.00;3.60;;;2.00;97.30;;;;;;4993371;28;20201;-84
2022/04/12 03:36:20;;;;;;;4.07;3.27;;;2.00;97.30;;;;;;4993517;28;20178;-85
2022/04/12 03:38:48;;;;;;;5.63;3.53;;;2.00;97.30;;;;;;4993349;28;20679;-85
2022/04/12 03:41:22;;;;;;;4.60;3.20;;;1.90;97.30;;;;;;4993358;28;20174;-85
2022/04/12 03:43:49;;;;;;;9.57;3.60;;;1.90;97.30;;;;;;4993013;28;20436;-85
2022/04/12 03:46:15;;;;;;;5.50;3.10;;;1.90;97.30;;;;;;4993215;28;20433;-85
2022/04/12 03:48:41;;;;;;;4.70;3.10;;;1.90;97.30;;;;;;4993371;28;20459;-86
2022/04/12 03:51:06;;;;;;;6.53;3.43;;;1.80;97.30;;;;;;4994514;28;20185;-85
2022/04/12 03:53:32;;;;;;;5.00;3.10;;;1.80;97.30;;;;;;4993201;28;20193;-85
2022/04/12 03:55:57;;;;;;;6.37;3.13;;;1.80;97.30;;;;;;4992899;28;20173;-87
2022/04/12 03:58:23;;;;;;;7.20;3.33;;;1.80;97.30;;;;;;4993361;28;20268;-87
2022/04/12 04:00:49;;;;;;;5.87;3.80;;;1.70;97.30;;;;;;4993317;28;20267;-88
2022/04/12 04:03:17;;;;;;;6.90;3.80;;;1.70;97.30;;;;;;4989355;28;20313;-86
2022/04/12 04:05:43;;;;;;;7.10;3.83;;;1.70;97.30;;;;;;4967296;28;20458;-85
2022/04/12 04:08:09;;;;;;;4.83;3.23;;;1.70;97.30;;;;;;4966597;28;20466;-85
2022/04/12 04:10:34;;;;;;;6.53;3.33;;;1.70;97.30;;;;;;4969655;28;20183;-85
2022/04/12 04:13:01;;;;;;;7.87;3.90;;;1.70;97.30;;;;;;4969928;28;20179;-86
2022/04/12 04:15:27;;;;;;;7.97;3.40;;;1.70;97.30;;;;;;4972269;28;20233;-85
2022/04/12 04:17:52;;;;;;;11.50;3.87;;;1.70;97.30;;;;;;4971994;28;20476;-85
2022/04/12 04:20:18;;;;;;;8.97;4.60;;;1.70;97.30;;;;;;4972026;28;20217;-85
2022/04/12 04:22:44;;;;;;;12.43;4.00;;;1.70;97.30;;;;;;4972211;28;20182;-85
2022/04/12 04:25:15;;;;;;;7.03;3.70;;;1.80;97.30;;;;;;4971484;28;20855;-85
2022/04/12 04:27:41;;;;;;;8.57;3.97;;;1.70;97.30;;;;;;4972155;28;20489;-85
2022/04/12 04:30:09;;;;;;;6.43;3.27;;;1.70;97.30;;;;;;4972179;28;20468;-85
2022/04/12 04:32:35;;;;;;;7.87;3.77;;;1.70;97.30;;;;;;4971933;28;20431;-85
2022/04/12 04:35:01;;;;;;;5.33;3.50;;;1.70;97.30;;;;;;4971979;28;20465;-85
2022/04/12 04:37:29;;;;;;;7.10;4.00;;;1.70;97.30;;;;;;4971648;28;20426;-87
2022/04/12 04:40:00;;;;;;;7.47;4.40;;;1.70;97.30;;;;;;4975211;28;20426;-81
2022/04/12 04:42:27;;;;;;;8.73;4.87;;;1.70;97.30;;;;;;4975399;28;20426;-81
2022/04/12 04:44:52;;;;;;;10.70;4.97;;;1.80;97.30;;;;;;4992696;28;20430;-81
2022/04/12 04:47:19;;;;;;;8.80;3.80;;;1.90;97.30;;;;;;4976183;28;20468;-81
2022/04/12 04:49:44;;;;;;;8.60;4.90;;;1.90;97.30;;;;;;4975557;28;20187;-82
2022/04/12 04:52:10;;;;;;;6.43;3.70;;;2.00;97.30;;;;;;4977231;28;20502;-84
2022/04/12 04:54:36;;;;;;;6.33;4.43;;;2.00;97.30;;;;;;4976234;28;20218;-84
2022/04/12 04:57:01;;;;;;;6.97;4.27;;;2.10;97.30;;;;;;4974206;28;20182;-84
2022/04/12 04:59:29;;;;;;;7.13;3.80;;;2.20;97.30;;;;;;4976555;28;20269;-84
2022/04/12 05:01:59;;;;;;;7.40;4.20;;;2.30;97.30;;;;;;4975832;28;20249;-84
2022/04/12 05:04:24;;;;;;;10.47;4.67;;;2.30;97.30;;;;;;4972757;28;20450;-82
2022/04/12 05:06:50;;;;;;;7.70;4.80;;;2.40;97.30;;;;;;4976398;28;20429;-83
2022/04/12 05:09:16;;;;;;;8.10;4.77;;;2.50;97.30;;;;;;4977882;28;20209;-82
2022/04/12 05:11:41;;;;;;;10.70;4.53;;;2.60;97.30;;;;;;4977037;28;20183;-82
2022/04/12 05:14:07;;;;;;;8.70;4.30;;;2.70;97.30;;;;;;4975846;28;20202;-81
2022/04/12 05:16:32;;;;;;;10.93;4.53;;;2.80;97.30;;;;;;4973851;28;20660;-81
2022/04/12 05:18:58;;;;;;;8.00;4.23;;;2.90;97.30;;;;;;4969928;28;20183;-82
2022/04/12 05:21:29;;;;;;;7.20;4.03;;;3.00;97.30;;;;;;4970036;28;20195;-83
2022/04/12 05:23:55;;;;;;;6.77;4.27;;;3.10;97.30;;;;;;4975623;28;20207;-82
2022/04/12 05:26:20;;;;;;;7.70;4.47;;;3.20;97.30;;;;;;4976756;28;20453;-82
2022/04/12 05:28:46;;;;;;;9.47;3.87;;;3.30;97.30;;;;;;4972233;28;20213;-85
2022/04/12 05:31:11;;;;;;;10.70;4.57;;;3.40;97.30;;;;;;4972892;28;20189;-82
2022/04/12 05:33:37;;;;;;;8.50;3.80;;;3.50;97.30;;;;;;4976947;28;20201;-82
2022/04/12 05:36:03;;;;;;;13.70;5.30;;;3.70;97.30;;;;;;4977629;28;20175;-83
2022/04/12 05:38:28;;;;;;;8.90;5.50;;;3.80;97.30;;;;;;4980963;28;20189;-82
2022/04/12 05:40:55;;;;;;;13.00;5.77;;;3.90;97.30;;;;;;4981022;28;20190;-81
2022/04/12 05:43:20;;;;;;;7.70;4.50;;;4.00;97.30;;;;;;4980644;28;20178;-83
2022/04/12 05:45:46;;;;;;;9.40;4.80;;;4.10;97.30;;;;;;4981384;28;20517;-82
2022/04/12 05:48:11;;;;;;;12.93;4.80;;;4.30;97.30;;;;;;4979825;28;20210;-84
2022/04/12 05:50:37;;;;;;;12.80;5.10;;;4.40;97.30;;;;;;4979377;28;20175;-83
2022/04/12 05:53:02;;;;;;;8.00;4.70;;;4.40;97.30;;;;;;4981382;28;20175;-82
2022/04/12 05:55:28;;;;;;;8.17;4.53;;;4.50;97.30;;;;;;4979529;28;20206;-83
2022/04/12 05:58:00;;;;;;;11.17;5.33;;;4.60;97.30;;;;;;4989135;28;20269;-84
2022/04/12 06:00:28;;;;;;;8.73;4.60;;;4.70;97.30;;;;;;5021767;28;20226;-83
2022/04/12 06:02:54;;;;;;;6.03;3.90;;;4.90;97.30;;;;;;5024923;28;20433;-83
2022/04/12 06:05:21;;;;;;;7.87;4.13;;;5.00;97.30;;;;;;4998604;28;20433;-83
2022/04/12 06:07:47;;;;;;;11.10;3.67;;;5.10;97.30;;;;;;4999511;28;20483;-83
2022/04/12 06:10:17;;;;;;;9.27;3.70;;;5.20;97.30;;;;;;4999481;28;20421;-83
2022/04/12 06:12:43;;;;;;;7.90;4.20;;;5.30;97.30;;;;;;4999393;28;20829;-85
2022/04/12 06:15:10;;;;;;;6.37;4.20;;;5.40;97.30;;;;;;4986082;28;20441;-83
2022/04/12 06:17:38;;;;;;;8.60;3.83;;;5.50;97.30;;;;;;5011746;28;20450;-82
2022/04/12 06:20:12;;;;;;;6.73;4.03;;;5.70;97.00;;;;;;5010292;28;20489;-84
2022/04/12 06:22:39;;;;;;;6.77;4.03;;;5.80;96.30;;;;;;5017478;28;21018;-83
2022/04/12 06:25:06;;;;;;;7.97;4.43;;;6.00;96.20;;;;;;4996510;28;20441;-84
2022/04/12 06:27:43;;;;;;;8.37;4.60;;;6.10;96.50;;;;;;4997219;28;20420;-83
2022/04/12 06:30:14;;;;;;;6.30;3.73;;;6.30;95.70;;;;;;4996440;28;20421;-84
2022/04/12 06:32:40;;;;;;;6.50;3.93;;;6.40;95.50;;;;;;4998391;28;20432;-83
2022/04/12 06:35:09;;;;;;;7.87;4.40;;;6.60;95.40;;;;;;4995199;28;20440;-84
2022/04/12 06:37:35;;;;;;;9.03;4.57;;;6.70;94.60;;;;;;5011425;28;20233;-83
2022/04/12 06:40:02;;;;;;;6.67;4.47;;;6.90;94.30;;;;;;4987167;28;20418;-84
2022/04/12 06:42:28;;;;;;;8.70;5.23;;;7.10;94.20;;;;;;4996990;28;20436;-84
2022/04/12 06:44:54;;;;;;;6.20;4.20;;;7.20;93.50;;;;;;4987191;28;20448;-84
2022/04/12 06:47:20;;;;;;;10.10;4.47;;;7.30;92.90;;;;;;4996978;28;20193;-83
2022/04/12 06:49:47;;;;;;;7.40;4.80;;;7.50;93.00;;;;;;4997644;28;20889;-83
2022/04/12 06:52:14;;;;;;;10.17;4.47;;;7.50;92.60;;;;;;4996227;28;20178;-84
2022/04/12 06:54:40;;;;;;;7.77;4.20;;;7.60;92.90;;;;;;4992747;28;20453;-83
2022/04/12 06:57:07;;;;;;;8.00;4.87;;;7.70;92.70;;;;;;5005360;28;20429;-83
2022/04/12 06:59:33;;;;;;;6.70;4.17;;;7.80;92.70;;;;;;4980466;28;20440;-83
2022/04/12 07:01:59;;;;;;;7.40;4.03;;;8.00;92.20;;;;;;4997415;28;20985;-83
2022/04/12 07:04:25;;;;;;;14.00;4.80;;;8.10;92.00;;;;;;4995520;28;20805;-84
2022/04/12 07:06:50;;;;;;;4.70;3.20;;;8.30;92.20;;;;;;4975841;28;20178;-83
2022/04/12 07:09:20;;;;;;;8.97;4.23;;;8.40;91.10;;;;;;4972789;28;20210;-84
2022/04/12 07:11:50;;;;;;;12.30;5.10;;;8.40;90.80;;;;;;4974252;28;20616;-83
2022/04/12 07:14:16;;;;;;;7.43;4.33;;;8.60;91.00;;;;;;4977212;28;20444;-83
2022/04/12 07:16:41;;;;;;;9.70;4.00;;;8.60;90.20;;;;;;4986756;28;20506;-83
2022/04/12 07:19:07;;;;;;;9.70;4.40;;;8.70;89.70;;;;;;4991068;28;20190;-84
2022/04/12 07:21:33;;;;;;;7.10;4.60;;;8.80;90.30;;;;;;4995024;28;20599;-84
2022/04/12 07:23:59;;;;;;;8.93;4.67;;;8.90;90.30;;;;;;4978239;28;20205;-83
2022/04/12 07:26:25;;;;;;;9.87;3.80;;;9.00;89.60;;;;;;4990353;28;20930;-84
2022/04/12 07:28:51;;;;;;;6.10;3.80;;;9.10;88.80;;;;;;4995871;28;20645;-83
2022/04/12 07:31:17;;;;;;;8.07;4.70;;;9.20;87.40;;;;;;4995860;28;20468;-83
2022/04/12 07:33:42;;;;;;;13.00;4.03;;;9.30;87.10;;;;;;4988678;28;20680;-84
2022/04/12 07:36:08;;;;;;;11.40;4.67;;;9.40;88.00;;;;;;4989639;28;20177;-84
2022/04/12 07:38:33;;;;;;;13.03;4.33;;;9.60;88.20;;;;;;4995604;28;20178;-84
2022/04/12 07:40:59;;;;;;;6.93;3.47;;;9.70;87.40;;;;;;4995812;28;20239;-84
2022/04/12 07:43:24;;;;;;;8.20;3.80;;;9.80;87.30;;;;;;4996102;28;20212;-83
2022/04/12 07:45:50;;;;;;;7.70;4.03;;;10.00;87.10;;;;;;4996616;28;20221;-83
2022/04/12 07:48:16;;;;;;;7.43;4.57;;;10.20;86.80;;;;;;4986336;28;20206;-83
2022/04/12 07:50:41;;;;;;;9.20;4.60;;;10.30;86.20;;;;;;4976257;28;20182;-83
2022/04/12 07:53:07;;;;;;;17.17;3.47;;;10.50;85.50;;;;;;4982550;28;20655;-84
2022/04/12 07:55:33;;;;;;;6.80;4.23;;;10.70;86.10;;;;;;4972670;28;20203;-83
2022/04/12 07:57:58;;;;;;;6.67;3.73;;;10.80;85.50;;;;;;4969230;28;20190;-83
2022/04/12 08:00:24;;;;;;;6.80;4.00;;;11.00;86.20;;;;;;4990429;28;20571;-83
2022/04/12 08:02:50;;;;;;;7.37;3.77;;;11.00;85.00;;;;;;4995396;28;20190;-83
2022/04/12 08:05:16;;;;;;;9.40;4.40;;;11.00;86.30;;;;;;4994560;28;20217;-83
2022/04/12 08:07:47;;;;;;;97.10;74.60;;;11.10;85.20;;;;;;4983060;28;20505;-84
2022/04/12 08:10:17;;;;;;;10.33;4.60;;;11.20;84.90;;;;;;4986643;28;20433;-83
2022/04/12 08:12:43;;;;;;;8.00;4.03;;;11.30;84.50;;;;;;4985764;28;20457;-84
2022/04/12 08:15:11;;;;;;;12.20;4.80;;;11.40;84.70;;;;;;4980635;28;20980;-84
2022/04/12 08:17:37;;;;;;;7.10;4.50;;;11.50;84.90;;;;;;5001682;28;20425;-84
2022/04/12 08:20:05;;;;;;;12.03;4.40;;;11.60;84.30;;;;;;4982976;28;20472;-84
2022/04/12 08:22:31;;;;;;;9.47;4.40;;;11.80;84.10;;;;;;5011541;28;20408;-84
2022/04/12 08:24:58;;;;;;;15.30;4.43;;;11.90;84.10;;;;;;4990211;28;20490;-85
2022/04/12 08:27:24;;;;;;;6.17;3.87;;;12.10;83.70;;;;;;4975602;28;20444;-84
2022/04/12 08:29:50;;;;;;;9.87;4.10;;;12.30;82.80;;;;;;5005799;28;20560;-85
2022/04/12 08:32:17;;;;;;;13.97;4.23;;;12.40;82.80;;;;;;4973104;28;20549;-84
2022/04/12 08:34:43;;;;;;;7.80;4.13;;;12.50;81.90;;;;;;4972745;28;20203;-85
2022/04/12 08:37:08;;;;;;;9.23;3.63;;;12.60;81.70;;;;;;4973358;28;20406;-85
2022/04/12 08:39:34;;;;;;;11.23;4.57;;;12.70;81.20;;;;;;4973893;28;20444;-84
2022/04/12 08:42:04;;;;;;;5.93;4.13;;;12.80;80.80;;;;;;4972739;28;20187;-85
2022/04/12 08:44:31;;;;;;;5.10;3.90;;;12.90;80.90;;;;;;5013732;28;20201;-84
2022/04/12 08:46:57;;;;;;;11.13;4.43;;;13.10;81.10;;;;;;4987362;28;20401;-85
2022/04/12 08:49:24;;;;;;;8.67;3.53;;;13.20;80.20;;;;;;4960228;28;21117;-85
2022/04/12 08:51:50;;;;;;;6.30;4.07;;;13.30;79.00;;;;;;4989346;28;20846;-84
2022/04/12 08:54:19;;;;;;;6.73;3.90;;;13.40;79.50;;;;;;4989084;28;20496;-84
2022/04/12 08:56:48;;;;;;;7.03;4.00;;;13.60;79.40;;;;;;4986760;28;20544;-85
2022/04/12 08:59:13;;;;;;;7.70;4.10;;;13.80;79.40;;;;;;5013693;28;20425;-85
2022/04/12 09:01:41;;;;;;;6.23;3.87;;;14.00;78.60;;;;;;4989966;28;20520;-84
2022/04/12 09:04:07;;;;;;;8.33;4.33;;;14.10;77.70;;;;;;4983995;28;20206;-84
2022/04/12 09:06:32;;;;;;;8.80;4.30;;;14.20;78.10;;;;;;4976470;28;20422;-85
2022/04/12 09:09:12;;;;;;;6.77;3.97;;;14.40;77.80;;;;;;5001841;28;20815;-84
2022/04/12 09:11:41;;;;;;;5.73;3.67;;;14.50;77.20;;;;;;5002957;28;20190;-85
2022/04/12 09:14:13;;;;;;;6.70;4.07;;;14.60;76.70;;;;;;4998157;28;20434;-84
2022/04/12 09:16:45;;;;;;;6.80;3.50;;;14.80;76.10;;;;;;5007982;28;20477;-84
2022/04/12 09:19:11;;;;;;;5.70;3.27;;;15.00;77.10;;;;;;4974671;28;20421;-84
2022/04/12 09:21:46;;;;;;;7.20;3.70;;;15.10;74.90;;;;;;4973194;28;20426;-84
2022/04/12 09:24:20;;;;;;;5.93;3.27;;;15.20;74.50;;;;;;4955478;28;20684;-84
2022/04/12 09:26:57;;;;;;;5.40;3.67;;;15.40;75.00;;;;;;4973046;28;20422;-85
2022/04/12 09:29:30;;;;;;;8.10;3.57;;;15.60;75.20;;;;;;4974349;28;20465;-85
2022/04/12 09:31:58;;;;;;;5.10;2.93;;;15.70;74.80;;;;;;4972835;28;20818;-85
2022/04/12 09:34:24;;;;;;;6.03;3.70;;;15.90;75.10;;;;;;4973346;28;20473;-85
2022/04/12 09:36:50;;;;;;;8.53;3.60;;;16.00;73.90;;;;;;4973061;28;20421;-85
2022/04/12 09:39:21;;;;;;;6.93;4.10;;;16.10;75.40;;;;;;4974747;28;20473;-85
2022/04/12 09:41:50;;;;;;;7.30;4.13;;;16.30;73.90;;;;;;4981145;28;20604;-85
2022/04/12 09:44:20;;;;;;;4.50;3.33;;;16.30;73.60;;;;;;4992428;28;20445;-85
2022/04/12 09:46:47;;;;;;;4.27;3.23;;;16.50;73.50;;;;;;4978560;28;20430;-85
2022/04/12 09:49:13;;;;;;;7.93;3.73;;;16.50;72.30;;;;;;4980309;28;20524;-86
2022/04/12 09:51:39;;;;;;;4.53;2.67;;;16.50;71.30;;;;;;4981267;28;20426;-84
2022/04/12 09:54:09;;;;;;;10.73;3.10;;;16.60;71.80;;;;;;4973230;28;20211;-84
2022/04/12 09:56:39;;;;;;;5.70;3.10;;;16.70;71.90;;;;;;4973634;28;20186;-85
2022/04/12 09:59:08;;;;;;;5.50;3.00;;;16.70;71.60;;;;;;4973205;28;20422;-84
2022/04/12 10:01:39;;;;;;;4.80;2.73;;;16.70;71.00;;;;;;4972972;28;20485;-86
2022/04/12 10:04:08;;;;;;;5.97;2.97;;;16.70;71.50;;;;;;4972765;28;20462;-85
2022/04/12 10:06:38;;;;;;;6.80;3.27;;;16.70;70.40;;;;;;4973250;28;20523;-84
2022/04/12 10:09:07;;;;;;;3.30;2.60;;;16.80;70.30;;;;;;4973736;28;20457;-84
2022/04/12 10:11:35;;;;;;;4.73;2.60;;;16.90;69.50;;;;;;4973439;28;20786;-85
2022/04/12 10:14:01;;;;;;;3.90;2.20;;;16.90;68.70;;;;;;5000225;28;20596;-85
2022/04/12 10:16:27;;;;;;;3.60;2.57;;;16.90;68.10;;;;;;4973253;28;20410;-84
2022/04/12 10:18:54;;;;;;;6.80;2.47;;;17.00;68.90;;;;;;4972871;28;20484;-86
2022/04/12 10:21:22;;;;;;;3.40;2.20;;;17.10;68.20;;;;;;4972894;28;20429;-85
2022/04/12 10:23:55;;;;;;;3.57;2.27;;;17.20;68.00;;;;;;4953330;28;20443;-85
2022/04/12 10:26:23;;;;;;;3.90;2.50;;;17.40;68.80;;;;;;4953628;29;20845;-85
2022/04/12 10:28:59;;;;;;;4.20;2.87;;;17.60;68.00;;;;;;4953392;29;20466;-85
2022/04/12 10:31:28;;;;;;;9.23;3.70;;;17.80;68.90;;;;;;4953731;28;20410;-85
2022/04/12 10:34:08;;;;;;;7.30;3.00;;;18.00;67.30;;;;;;4973150;28;20760;-85
2022/04/12 10:37:02;;;;;;;5.50;2.70;;;18.10;67.50;;;;;;4991844;28;20456;-84
2022/04/12 10:39:50;;;;;;;4.83;2.80;;;18.30;68.20;;;;;;4992697;28;20504;-85
2022/04/12 10:42:24;;;;;;;6.37;3.93;;;18.40;69.70;;;;;;4980306;28;20424;-85
2022/04/12 10:44:56;;;;;;;6.10;3.70;;;18.50;67.60;;;;;;4991175;28;20445;-85
2022/04/12 10:47:27;;;;;;;6.37;4.20;;;18.50;67.40;;;;;;4989496;28;20520;-85
2022/04/12 10:49:54;;;;;;;6.20;3.43;;;18.50;69.00;;;;;;4987582;28;20833;-85
2022/04/12 10:52:31;;;;;;;6.80;3.80;;;18.60;68.50;;;;;;4991573;28;20413;-85
2022/04/12 10:54:57;;;;;;;8.10;3.90;;;18.70;68.20;;;;;;4991790;28;20445;-85
2022/04/12 10:57:24;;;;;;;7.80;4.53;;;18.60;67.90;;;;;;4991880;28;20478;-85
2022/04/12 10:59:57;;;;;;;5.20;3.27;;;18.70;68.60;;;;;;4988071;28;20480;-85
2022/04/12 11:02:30;;;;;;;6.37;4.00;;;18.80;68.30;;;;;;5004460;28;20450;-85
2022/04/12 11:04:56;;;;;;;9.17;3.60;;;18.70;68.90;;;;;;4972740;28;20827;-85
2022/04/12 11:07:36;;;;;;;7.30;4.20;;;18.70;69.00;;;;;;4971766;28;20573;-85
2022/04/12 11:10:20;;;;;;;11.10;3.90;;;18.70;69.10;;;;;;4987629;28;20205;-85
2022/04/12 11:12:47;;;;;;;8.33;3.50;;;18.90;69.20;;;;;;4973160;28;20463;-85
2022/04/12 11:15:20;;;;;;;7.03;3.90;;;19.00;69.60;;;;;;4971859;28;21021;-85
2022/04/12 11:17:46;;;;;;;6.37;3.93;;;19.20;69.30;;;;;;4971127;28;20425;-84
2022/04/12 11:20:22;;;;;;;5.57;3.73;;;19.20;68.70;;;;;;5005530;28;20421;-85
2022/04/12 11:22:59;;;;;;;5.63;4.03;;;19.10;68.40;;;;;;4975721;28;20170;-84
2022/04/12 11:25:26;;;;;;;6.40;3.70;;;19.20;69.30;;;;;;5001978;28;20810;-85
2022/04/12 11:27:59;;;;;;;7.30;3.23;;;19.40;69.70;;;;;;4974318;28;21077;-85
2022/04/12 11:30:28;;;;;;;4.73;3.53;;;19.30;67.00;;;;;;5006406;28;20964;-85
2022/04/12 11:32:55;;;;;;;7.43;4.40;;;19.40;67.40;;;;;;4973928;28;20418;-85
2022/04/12 11:35:23;;;;;;;4.60;3.33;;;19.60;68.10;;;;;;4988674;28;20951;-86
2022/04/12 11:37:49;;;;;;;6.70;3.27;;;19.80;68.20;;;;;;4981782;28;20555;-86
2022/04/12 11:40:15;;;;;;;7.93;3.63;;;19.90;67.10;;;;;;4978070;28;20433;-86
2022/04/12 11:42:41;;;;;;;8.77;4.70;;;19.80;69.10;;;;;;4990087;28;20568;-86
2022/04/12 11:45:07;;;;;;;7.57;4.43;;;19.80;67.40;;;;;;4973062;28;20206;-86
2022/04/12 11:47:38;;;;;;;8.80;4.00;;;19.80;66.60;;;;;;4985424;28;20427;-86
2022/04/12 11:50:17;;;;;;;5.93;3.90;;;20.00;67.60;;;;;;5003037;28;20437;-85
2022/04/12 11:52:44;;;;;;;6.60;4.17;;;20.20;66.00;;;;;;4986746;28;20409;-86
2022/04/12 11:55:11;;;;;;;7.23;4.30;;;20.20;67.20;;;;;;5003581;28;20444;-85
2022/04/12 11:57:36;;;;;;;7.03;4.20;;;20.40;67.10;;;;;;4989753;28;20846;-85
2022/04/12 12:00:04;;;;;;;6.50;4.00;;;20.50;67.50;;;;;;5005302;28;20492;-85
2022/04/12 12:02:32;;;;;;;7.40;4.13;;;20.50;66.60;;;;;;4989760;28;20197;-85
2022/04/12 12:05:06;;;;;;;5.73;3.97;;;20.40;65.30;;;;;;4991003;28;20440;-83
2022/04/12 12:07:36;;;;;;;9.50;3.30;;;20.40;67.00;;;;;;4990216;28;20425;-83
2022/04/12 12:10:12;;;;;;;6.70;3.47;;;20.50;66.00;;;;;;4992528;28;20943;-83
2022/04/12 12:12:40;;;;;;;4.57;3.37;;;20.50;65.50;;;;;;4974322;28;20426;-83
2022/04/12 12:15:25;;;;;;;8.20;3.90;;;20.50;65.20;;;;;;4969567;28;20429;-84
2022/04/12 12:17:53;;;;;;;7.47;4.33;;;20.70;67.00;;;;;;4968118;28;20418;-83
2022/04/12 12:20:21;;;;;;;8.87;4.40;;;20.70;66.50;;;;;;4986483;28;20418;-83
2022/04/12 12:22:52;;;;;;;7.40;3.90;;;20.80;65.90;;;;;;5002019;28;20432;-83
2022/04/12 12:25:22;;;;;;;7.30;4.07;;;21.10;67.80;;;;;;5000908;28;21096;-83
2022/04/12 12:27:50;;;;;;;6.17;3.60;;;21.20;65.10;;;;;;5000206;28;20954;-84
2022/04/12 12:30:19;;;;;;;11.73;4.83;;;20.90;64.60;;;;;;5009566;28;20417;-83
2022/04/12 12:32:49;;;;;;;7.40;3.80;;;20.90;65.50;;;;;;4988982;28;20416;-83
2022/04/12 12:35:16;;;;;;;5.40;3.70;;;20.80;67.00;;;;;;4984357;28;20978;-83
2022/04/12 12:37:43;;;;;;;6.47;3.97;;;20.80;65.30;;;;;;4984518;28;20873;-83
2022/04/12 12:40:18;;;;;;;4.83;3.83;;;20.70;65.80;;;;;;5005232;28;20432;-82
2022/04/12 12:42:44;;;;;;;7.00;4.53;;;20.90;67.20;;;;;;4990419;28;20417;-84
2022/04/12 12:45:16;;;;;;;4.90;3.67;;;21.20;65.90;;;;;;4969863;28;20473;-83
2022/04/12 12:47:43;;;;;;;5.20;3.93;;;21.50;66.90;;;;;;4967555;28;20470;-83
2022/04/12 12:50:11;;;;;;;10.57;4.07;;;21.60;65.10;;;;;;4970143;28;20434;-83
2022/04/12 12:52:37;;;;;;;5.60;4.07;;;21.70;65.00;;;;;;5003796;28;20432;-84
2022/04/12 12:55:12;;;;;;;9.40;4.17;;;21.80;64.80;;;;;;5012223;28;20486;-83
2022/04/12 12:57:45;;;;;;;7.63;4.00;;;22.00;65.40;;;;;;4981163;28;20516;-83
2022/04/12 13:00:13;;;;;;;5.47;3.70;;;22.20;64.70;;;;;;4976556;28;20920;-83